createdAt,value
2023-02-14T21:19:20.884Z,13.28
2023-02-14T21:21:49.183Z,13.38
2023-02-14T21:24:20.567Z,13.46
2023-02-14T21:26:48.695Z,13.50
2023-02-14T21:29:17.395Z,13.49
2023-02-14T21:31:45.865Z,13.50
2023-02-14T21:34:16.879Z,13.51
2023-02-14T21:37:00.771Z,13.53
2023-02-14T21:39:31.752Z,13.54
2023-02-14T21:42:01.801Z,13.56
2023-02-14T21:44:48.256Z,13.56
2023-02-14T21:47:16.524Z,13.55
2023-02-14T21:50:06.388Z,13.54
2023-02-14T21:52:38.245Z,13.54
2023-02-14T21:55:09.733Z,13.53
2023-02-14T21:57:38.065Z,13.52
2023-02-14T22:00:07.069Z,13.52
2023-02-14T22:02:35.395Z,13.50
2023-02-14T22:05:03.704Z,13.47
2023-02-14T22:07:31.994Z,13.45
2023-02-14T22:10:00.265Z,13.44
2023-02-14T22:12:30.254Z,13.47
2023-02-14T22:15:01.127Z,13.45
2023-02-14T22:17:29.743Z,13.41
2023-02-14T22:19:58.021Z,13.41
2023-02-14T22:22:26.619Z,13.40
2023-02-14T22:24:54.862Z,13.47
2023-02-14T22:27:23.205Z,13.51
2023-02-14T22:29:51.594Z,13.53
2023-02-14T22:32:19.958Z,13.55
2023-02-14T22:34:48.246Z,13.57
2023-02-14T22:37:16.627Z,13.57
2023-02-14T22:39:44.836Z,13.63
2023-02-14T22:42:13.178Z,13.69
2023-02-14T22:44:41.488Z,13.71
2023-02-14T22:47:09.718Z,13.74
2023-02-14T22:49:37.990Z,13.77
2023-02-14T22:52:06.489Z,13.78
2023-02-14T22:54:34.733Z,13.77
2023-02-14T22:57:03.049Z,13.76
2023-02-14T22:59:32.996Z,13.75
2023-02-14T23:02:02.476Z,13.76
2023-02-14T23:04:30.886Z,13.73
2023-02-14T23:06:59.400Z,13.70
2023-02-14T23:09:29.039Z,13.69
2023-02-14T23:11:57.370Z,13.63
2023-02-14T23:14:43.846Z,13.56
2023-02-14T23:17:19.566Z,13.55
2023-02-14T23:20:09.878Z,13.52
2023-02-14T23:22:40.594Z,13.47
2023-02-14T23:25:11.724Z,13.43
2023-02-14T23:27:45.974Z,13.36
2023-02-14T23:30:17.347Z,13.25
2023-02-14T23:32:45.472Z,13.08
2023-02-14T23:35:14.364Z,13.04
2023-02-14T23:37:42.842Z,13.04
2023-02-14T23:40:23.615Z,13.05
